Time;durP1;ratioP1;P1;durP2;ratioP2;P2;SDS_P1;SDS_P2;PMS_P1;PMS_P2;Temp;Humidity;BMP_temperature;BMP_pressure;BME280_temperature;BME280_humidity;BME280_pressure;Samples;Min_cycle;Max_cycle;Signal;HPM_P1;HPM_P2
2022/07/31 00:01:19;;;;;;;10.05;6.63;;;;;;;18.73;84.19;101565.88;5265652;28;20056;-69
2022/07/31 00:03:50;;;;;;;11.05;7.53;;;;;;;18.83;90.13;101559.59;5264885;28;20538;-69
2022/07/31 00:06:21;;;;;;;12.15;7.88;;;;;;;18.76;85.11;101559.34;5261430;28;20067;-69
2022/07/31 00:08:53;;;;;;;10.70;7.80;;;;;;;18.75;85.47;101566.56;5260886;28;20028;-69
2022/07/31 00:11:24;;;;;;;9.20;7.90;;;;;;;18.78;84.34;101565.44;5258779;28;20109;-69
2022/07/31 00:13:55;;;;;;;12.13;7.65;;;;;;;18.82;84.43;101550.63;5265745;28;20051;-69
2022/07/31 00:16:27;;;;;;;9.30;7.75;;;;;;;18.76;84.22;101549.38;5255090;28;20013;-69
2022/07/31 00:18:58;;;;;;;13.60;8.70;;;;;;;18.82;83.91;101553.34;5262362;28;20039;-69
2022/07/31 00:21:29;;;;;;;10.38;8.13;;;;;;;18.74;84.70;101545.97;5256155;28;20036;-69
2022/07/31 00:24:00;;;;;;;15.13;8.07;;;;;;;18.76;83.79;101545.81;5259406;28;20060;-69
2022/07/31 00:26:32;;;;;;;14.32;8.50;;;;;;;18.77;84.01;101545.69;5257407;28;20488;-69
2022/07/31 00:29:03;;;;;;;10.80;8.50;;;;;;;18.77;83.54;101544.81;5259590;28;20020;-69
2022/07/31 00:31:34;;;;;;;11.43;8.13;;;;;;;18.76;83.67;101548.53;5257314;28;20040;-69
2022/07/31 00:34:06;;;;;;;11.80;7.97;;;;;;;18.76;82.73;101545.81;5259133;28;20028;-69
2022/07/31 00:36:37;;;;;;;12.38;7.57;;;;;;;18.76;82.76;101553.94;5255332;28;20033;-69
2022/07/31 00:39:09;;;;;;;12.93;7.75;;;;;;;18.72;82.53;101563.34;5254830;28;20038;-69
2022/07/31 00:41:42;;;;;;;11.18;7.53;;;;;;;18.71;81.98;101564.34;5269182;28;20069;-69
2022/07/31 00:44:13;;;;;;;11.65;7.68;;;;;;;18.72;81.37;101560.66;5254039;28;20037;-69
2022/07/31 00:46:44;;;;;;;9.20;7.53;;;;;;;18.71;81.24;101556.25;5252187;28;20482;-69
2022/07/31 00:49:16;;;;;;;10.95;7.70;;;;;;;18.68;82.04;101556.53;5253885;28;20601;-69
2022/07/31 00:51:47;;;;;;;10.18;7.50;;;;;;;18.65;81.94;101554.16;5259053;28;20029;-69
2022/07/31 00:54:18;;;;;;;12.18;7.75;;;;;;;18.69;82.51;101556.38;5256041;28;20056;-69
2022/07/31 00:56:50;;;;;;;10.20;7.60;;;;;;;18.58;82.40;101545.78;5258349;28;20021;-69
2022/07/31 00:59:21;;;;;;;10.80;7.65;;;;;;;18.50;83.13;101546.56;5258840;28;20044;-69
2022/07/31 01:01:53;;;;;;;9.48;6.80;;;;;;;18.49;82.67;101542.16;5260079;28;20450;-69
2022/07/31 01:04:25;;;;;;;8.98;6.65;;;;;;;18.46;84.66;101539.75;5257104;28;20478;-69
2022/07/31 01:06:56;;;;;;;9.73;7.35;;;;;;;18.41;84.73;101536.69;5254380;28;20036;-70
2022/07/31 01:09:28;;;;;;;11.02;7.20;;;;;;;18.40;84.31;101543.06;5256326;28;20029;-69
2022/07/31 01:12:06;;;;;;;9.80;6.82;;;;;;;18.34;84.53;101541.81;5260255;28;20441;-69
2022/07/31 01:14:56;;;;;;;11.30;6.88;;;;;;;18.37;84.81;101540.66;5254099;28;20028;-69
2022/07/31 01:17:29;;;;;;;11.07;7.05;;;;;;;18.29;86.98;101548.69;5260296;28;20475;-69
2022/07/31 01:20:01;;;;;;;11.05;7.03;;;;;;;18.26;88.54;101554.41;5257165;28;20060;-69
2022/07/31 01:22:51;;;;;;;10.05;7.45;;;;;;;18.25;89.38;101544.59;5256698;28;20490;-69
2022/07/31 01:25:50;;;;;;;11.20;8.07;;;;;;;18.23;87.44;101556.38;5254505;28;20036;-69
2022/07/31 01:28:27;;;;;;;9.82;8.15;;;;;;;18.18;89.50;101547.91;5256170;28;20017;-69
2022/07/31 01:31:24;;;;;;;11.73;8.25;;;;;;;18.22;88.37;101540.34;5254876;28;20035;-69
2022/07/31 01:34:07;;;;;;;12.10;7.50;;;;;;;18.19;91.31;101537.94;5258661;28;20024;-69
2022/07/31 01:36:43;;;;;;;11.57;8.07;;;;;;;18.13;89.66;101535.84;5250682;28;20028;-69
2022/07/31 01:39:16;;;;;;;9.77;8.10;;;;;;;18.13;91.77;101535.84;5269950;28;20469;-69
2022/07/31 01:41:49;;;;;;;9.20;7.32;;;;;;;18.10;91.19;101534.28;5264314;28;20021;-69
2022/07/31 01:44:23;;;;;;;12.47;7.80;;;;;;;18.08;90.53;101538.97;5265965;28;20322;-69
2022/07/31 01:46:57;;;;;;;;;;;;;;;18.25;87.81;101536.47;5260398;28;20028;-69
2022/07/31 01:49:30;;;;;;;12.05;8.80;;;;;;;18.06;90.35;101530.16;5271434;28;19922;-69
2022/07/31 01:52:02;;;;;;;10.63;7.95;;;;;;;18.01;87.90;101535.19;5270900;28;20541;-69
2022/07/31 01:54:35;;;;;;;12.75;8.25;;;;;;;17.98;89.47;101543.56;5251540;28;20359;-69
2022/07/31 01:57:08;;;;;;;13.68;8.02;;;;;;;17.92;88.72;101538.78;5255177;28;20025;-69
2022/07/31 01:59:40;;;;;;;12.25;7.95;;;;;;;17.90;87.53;101532.66;5259551;28;21246;-69
2022/07/31 02:02:13;;;;;;;10.80;7.82;;;;;;;17.83;88.16;101532.38;5266706;28;20623;-69
2022/07/31 02:04:46;;;;;;;13.82;8.18;;;;;;;17.81;89.12;101527.13;5262834;28;20047;-69
2022/07/31 02:07:19;;;;;;;11.50;7.18;;;;;;;17.94;89.17;101532.22;5263553;28;20028;-69
2022/07/31 02:09:52;;;;;;;14.82;7.90;;;;;;;17.82;89.02;101533.38;5272466;28;20514;-69
2022/07/31 02:12:24;;;;;;;13.75;8.07;;;;;;;17.81;89.90;101523.56;5258531;28;20146;-69
2022/07/31 02:14:56;;;;;;;14.45;8.57;;;;;;;17.80;89.44;101522.72;5265326;28;20053;-69
2022/07/31 02:17:28;;;;;;;15.43;7.93;;;;;;;17.80;89.88;101527.28;5267101;28;20024;-69
2022/07/31 02:20:01;;;;;;;12.73;8.10;;;;;;;17.85;88.85;101527.69;5266444;28;20047;-69
2022/07/31 02:22:33;;;;;;;12.32;8.68;;;;;;;17.78;89.19;101519.31;5261097;28;20102;-69
2022/07/31 02:25:06;;;;;;;15.60;8.55;;;;;;;17.79;89.46;101520.16;5263468;28;20739;-69
2022/07/31 02:27:39;;;;;;;12.27;8.52;;;;;;;17.83;91.25;101521.56;5272334;28;20052;-69
2022/07/31 02:30:11;;;;;;;15.65;9.27;;;;;;;17.74;89.73;101520.63;5255193;28;20051;-69
2022/07/31 02:32:45;;;;;;;10.20;7.97;;;;;;;17.69;90.94;101533.69;5276854;28;20028;-69
2022/07/31 02:35:17;;;;;;;13.32;8.77;;;;;;;17.67;92.09;101538.41;5265228;28;20044;-69
2022/07/31 02:37:51;;;;;;;14.40;9.20;;;;;;;17.60;93.25;101529.19;5262275;28;20165;-69
2022/07/31 02:40:24;;;;;;;12.55;9.60;;;;;;;17.54;91.73;101527.91;5259993;28;20028;-69
2022/07/31 02:42:56;;;;;;;11.88;9.18;;;;;;;17.54;95.95;101524.38;5260065;28;20032;-69
2022/07/31 02:45:27;;;;;;;11.45;9.13;;;;;;;17.49;95.79;101521.25;5252002;28;20029;-69
2022/07/31 02:47:58;;;;;;;13.23;9.20;;;;;;;17.49;93.05;101519.44;5268416;28;20412;-69
2022/07/31 02:50:30;;;;;;;11.23;9.93;;;;;;;17.53;97.00;101515.44;5253725;28;20028;-69
2022/07/31 02:53:02;;;;;;;14.73;9.60;;;;;;;17.46;94.07;101518.88;5261771;28;20029;-70
2022/07/31 02:55:34;;;;;;;11.02;9.05;;;;;;;17.49;95.21;101518.56;5266036;28;20328;-69
2022/07/31 02:58:06;;;;;;;12.82;10.13;;;;;;;17.50;96.18;101523.81;5263179;28;20392;-69
2022/07/31 03:00:37;;;;;;;10.48;9.25;;;;;;;17.52;96.51;101507.47;5254241;28;20139;-69
2022/07/31 03:03:08;;;;;;;10.48;8.73;;;;;;;17.46;95.87;101500.81;5261192;28;20531;-69
2022/07/31 03:05:40;;;;;;;12.32;8.77;;;;;;;17.57;97.49;101500.66;5267109;28;20407;-69
2022/07/31 03:08:11;;;;;;;12.75;9.10;;;;;;;17.53;95.58;101509.19;5264142;28;20058;-69
2022/07/31 03:10:42;;;;;;;15.95;9.32;;;;;;;17.57;97.08;101506.06;5266371;28;20774;-69
2022/07/31 03:13:15;;;;;;;13.43;9.27;;;;;;;17.56;93.82;101503.50;5263946;28;20032;-69
2022/07/31 03:15:48;;;;;;;12.17;8.90;;;;;;;17.49;93.46;101500.53;5262788;28;20034;-69
2022/07/31 03:18:20;;;;;;;12.27;8.90;;;;;;;17.54;94.96;101502.78;5257648;28;20562;-69
2022/07/31 03:20:53;;;;;;;12.20;9.02;;;;;;;17.47;93.04;101497.16;5253138;28;20032;-69
2022/07/31 03:23:26;;;;;;;11.73;9.40;;;;;;;17.46;92.65;101499.97;5255794;28;20063;-69
2022/07/31 03:25:58;;;;;;;15.02;9.35;;;;;;;17.51;93.95;101500.38;5261013;28;20025;-69
2022/07/31 03:28:30;;;;;;;14.43;10.80;;;;;;;17.50;94.53;101496.00;5259480;28;20024;-69
2022/07/31 03:31:02;;;;;;;11.90;9.77;;;;;;;17.54;92.89;101497.41;5261154;28;20040;-69
2022/07/31 03:33:33;;;;;;;11.27;9.73;;;;;;;17.52;92.79;101500.22;5260824;28;20111;-69
2022/07/31 03:36:05;;;;;;;12.77;10.80;;;;;;;17.47;94.67;101496.28;5256406;28;20199;-69
2022/07/31 03:38:36;;;;;;;11.95;10.73;;;;;;;17.47;95.32;101493.56;5260573;28;20051;-69
2022/07/31 03:41:07;;;;;;;11.50;10.25;;;;;;;17.35;94.43;101490.22;5261507;28;20024;-69
2022/07/31 03:43:41;;;;;;;12.35;10.57;;;;;;;17.36;93.27;101490.06;5261629;28;20032;-70
2022/07/31 03:46:14;;;;;;;16.02;11.10;;;;;;;17.40;92.90;101499.56;5250296;28;20090;-70
2022/07/31 03:48:47;;;;;;;12.70;11.32;;;;;;;17.38;92.87;101495.31;5262888;28;20059;-70
2022/07/31 03:51:19;;;;;;;14.95;11.20;;;;;;;17.36;94.44;101492.75;5259939;28;20041;-70
2022/07/31 03:53:50;;;;;;;13.85;11.25;;;;;;;17.34;95.56;101494.75;5258102;28;20029;-69
2022/07/31 03:56:24;;;;;;;17.58;12.75;;;;;;;17.31;94.10;101495.03;5251368;28;20032;-70
2022/07/31 03:58:55;;;;;;;13.75;11.85;;;;;;;17.40;95.37;101493.31;5254568;28;20142;-69
2022/07/31 04:01:27;;;;;;;13.38;11.93;;;;;;;17.32;92.89;101491.34;5249772;28;20036;-69
2022/07/31 04:03:58;;;;;;;15.23;12.40;;;;;;;17.33;93.05;101498.44;5260168;28;20106;-69
2022/07/31 04:06:30;;;;;;;15.00;12.55;;;;;;;17.37;93.03;101496.31;5260996;28;20047;-69
2022/07/31 04:09:02;;;;;;;16.15;12.57;;;;;;;17.34;93.20;101494.75;5252822;28;20090;-70
2022/07/31 04:11:33;;;;;;;16.83;12.02;;;;;;;17.35;94.07;101501.84;5264788;28;20043;-70
2022/07/31 04:14:05;;;;;;;18.30;12.50;;;;;;;17.34;94.48;101500.16;5253907;28;20111;-70
2022/07/31 04:16:36;;;;;;;15.93;12.05;;;;;;;17.36;93.84;101495.47;5260287;28;20351;-70
2022/07/31 04:19:07;;;;;;;16.80;11.70;;;;;;;17.34;93.40;101497.44;5256985;28;20028;-70
2022/07/31 04:21:38;;;;;;;15.32;11.68;;;;;;;17.35;94.68;101512.63;5273849;28;20048;-70
2022/07/31 04:24:12;;;;;;;15.07;11.30;;;;;;;17.35;93.53;101512.63;5263849;28;20974;-70
2022/07/31 04:26:44;;;;;;;15.95;10.63;;;;;;;17.34;93.23;101512.78;5264664;28;20124;-69
2022/07/31 04:29:15;;;;;;;11.90;10.70;;;;;;;17.34;94.98;101516.34;5258785;28;20420;-70
2022/07/31 04:31:47;;;;;;;13.70;10.70;;;;;;;17.38;94.61;101506.94;5259114;28;20017;-70
2022/07/31 04:34:18;;;;;;;15.30;10.98;;;;;;;17.42;94.62;101512.91;5261643;28;20115;-71
2022/07/31 04:36:49;;;;;;;14.75;10.63;;;;;;;17.37;94.34;101505.28;5251137;28;20498;-70
2022/07/31 04:39:21;;;;;;;14.57;10.27;;;;;;;17.40;94.52;101514.91;5256092;28;20059;-69
2022/07/31 04:41:52;;;;;;;10.85;9.05;;;;;;;17.42;94.57;101513.75;5250127;28;20067;-70
2022/07/31 04:44:23;;;;;;;14.05;9.68;;;;;;;17.46;95.20;101511.63;5254206;28;20028;-71
2022/07/31 04:47:03;;;;;;;13.00;9.27;;;;;;;17.56;94.23;101508.88;5243859;28;20179;-70
2022/07/31 04:49:34;;;;;;;12.25;8.75;;;;;;;17.53;94.77;101506.50;5258024;28;20256;-70
2022/07/31 04:52:05;;;;;;;9.52;8.35;;;;;;;17.58;95.88;101512.28;5261264;28;20028;-70
2022/07/31 04:54:37;;;;;;;10.02;7.60;;;;;;;17.65;96.48;101505.31;5256339;28;20028;-70
2022/07/31 04:57:09;;;;;;;9.52;7.65;;;;;;;17.75;96.08;101506.13;5257206;28;20024;-70
2022/07/31 04:59:40;;;;;;;9.55;7.13;;;;;;;17.81;96.71;101510.06;5257127;28;20321;-70
2022/07/31 05:02:11;;;;;;;10.48;7.43;;;;;;;17.76;96.24;101507.84;5252325;28;20479;-69
2022/07/31 05:04:43;;;;;;;10.27;6.90;;;;;;;17.78;95.36;101502.28;5265267;28;20064;-70
2022/07/31 05:07:14;;;;;;;10.95;6.85;;;;;;;17.73;96.29;101505.41;5263283;28;20028;-70
2022/07/31 05:09:45;;;;;;;9.80;7.25;;;;;;;17.74;96.57;101512.53;5250133;28;20438;-70
2022/07/31 05:12:16;;;;;;;10.43;6.63;;;;;;;17.72;96.36;101508.25;5251908;28;20403;-70
2022/07/31 05:14:48;;;;;;;9.30;6.68;;;;;;;17.72;96.76;101501.03;5278001;28;20497;-70
2022/07/31 05:17:19;;;;;;;7.82;6.13;;;;;;;17.83;98.46;101490.03;5254792;28;20021;-70
2022/07/31 05:19:50;;;;;;;9.68;5.82;;;;;;;17.86;97.60;101488.94;5257230;28;20037;-70
2022/07/31 05:22:21;;;;;;;7.97;5.78;;;;;;;17.87;98.00;101484.38;5252330;28;20210;-70
2022/07/31 05:24:53;;;;;;;8.52;5.45;;;;;;;17.83;97.16;101495.44;5262449;28;20101;-70
2022/07/31 05:27:24;;;;;;;9.00;5.57;;;;;;;17.82;97.05;101495.59;5263167;28;20040;-70
2022/07/31 05:29:55;;;;;;;6.97;5.32;;;;;;;17.92;97.42;101492.88;5253524;28;20509;-70
2022/07/31 05:32:27;;;;;;;7.10;5.72;;;;;;;17.94;98.21;101485.47;5254363;28;20434;-70
2022/07/31 05:34:58;;;;;;;8.63;5.80;;;;;;;17.90;98.04;101486.78;5261769;28;20028;-70
2022/07/31 05:37:30;;;;;;;6.97;4.88;;;;;;;18.01;99.61;101486.59;5259346;28;20025;-69
2022/07/31 05:40:01;;;;;;;7.80;4.82;;;;;;;17.98;98.30;101486.88;5253314;28;20419;-70
2022/07/31 05:42:32;;;;;;;6.35;5.07;;;;;;;18.07;98.81;101474.31;5253597;28;20032;-70
2022/07/31 05:45:04;;;;;;;6.03;4.67;;;;;;;18.09;99.68;101483.97;5254855;28;20025;-69
2022/07/31 05:47:35;;;;;;;9.93;4.93;;;;;;;18.06;99.23;101491.53;5256221;28;20102;-70
2022/07/31 05:50:07;;;;;;;6.75;4.45;;;;;;;18.02;98.97;101494.53;5266689;28;21781;-69
2022/07/31 05:52:38;;;;;;;6.22;4.47;;;;;;;18.05;99.55;101493.38;5257504;28;20069;-70
2022/07/31 05:55:10;;;;;;;7.85;4.60;;;;;;;18.16;100.00;101492.31;5250132;28;20032;-69
2022/07/31 05:57:41;;;;;;;6.95;4.97;;;;;;;18.15;98.56;101488.75;5259457;28;20392;-70
2022/07/31 06:00:14;;;;;;;7.45;4.63;;;;;;;18.31;98.73;101498.88;5250132;28;20028;-69
2022/07/31 06:02:46;;;;;;;7.32;4.47;;;;;;;18.31;100.00;101490.78;5254538;28;20028;-69
2022/07/31 06:05:17;;;;;;;10.38;4.68;;;;;;;18.28;99.32;101495.66;5261351;28;20810;-69
2022/07/31 06:07:50;;;;;;;6.68;4.75;;;;;;;18.31;98.82;101488.09;5262845;28;20032;-69
2022/07/31 06:10:21;;;;;;;8.80;4.50;;;;;;;18.30;98.81;101493.66;5258656;28;20818;-70
2022/07/31 06:12:53;;;;;;;6.85;4.57;;;;;;;18.39;100.00;101484.66;5260307;28;20115;-70
2022/07/31 06:15:25;;;;;;;6.40;4.38;;;;;;;18.40;99.47;101487.16;5260139;28;20021;-69
2022/07/31 06:17:57;;;;;;;7.65;4.35;;;;;;;18.48;100.00;101499.06;5259858;28;20029;-69
2022/07/31 06:20:29;;;;;;;6.95;4.65;;;;;;;18.45;98.93;101489.44;5264709;28;20571;-69
2022/07/31 06:23:00;;;;;;;8.10;4.25;;;;;;;18.50;98.44;101489.81;5261262;28;20111;-69
2022/07/31 06:25:32;;;;;;;7.38;5.00;;;;;;;18.52;98.79;101484.25;5260621;28;20029;-69
2022/07/31 06:28:03;;;;;;;6.28;4.55;;;;;;;18.58;99.53;101479.09;5265557;28;20071;-69
2022/07/31 06:30:34;;;;;;;7.70;4.90;;;;;;;18.61;98.87;101478.75;5260592;28;20031;-69
2022/07/31 06:33:06;;;;;;;6.43;4.80;;;;;;;18.68;98.99;101478.13;5266078;28;20115;-69
2022/07/31 06:35:37;;;;;;;7.20;4.45;;;;;;;18.70;99.57;101473.47;5257040;28;20390;-69
2022/07/31 06:38:08;;;;;;;5.07;4.15;;;;;;;18.71;99.41;101472.44;5264561;28;20139;-69
2022/07/31 06:40:42;;;;;;;7.55;4.30;;;;;;;18.80;98.71;101479.66;5261605;28;20166;-69
2022/07/31 06:43:13;;;;;;;7.93;4.28;;;;;;;18.97;98.43;101472.53;5258955;28;20028;-69
2022/07/31 06:45:45;;;;;;;5.68;3.88;;;;;;;19.04;98.90;101481.69;5257769;28;20024;-69
2022/07/31 06:48:16;;;;;;;6.68;3.95;;;;;;;19.01;98.06;101476.63;5257475;28;20033;-69
2022/07/31 06:50:47;;;;;;;7.40;4.63;;;;;;;19.02;96.81;101480.16;5261476;28;20159;-69
2022/07/31 06:53:19;;;;;;;7.88;4.63;;;;;;;19.06;96.57;101481.53;5263756;28;20093;-71
2022/07/31 06:55:51;;;;;;;9.50;4.40;;;;;;;19.24;98.65;101486.94;5259601;28;20094;-69
2022/07/31 06:58:22;;;;;;;6.20;4.32;;;;;;;19.19;97.17;101476.56;5266699;28;20048;-69
2022/07/31 07:00:53;;;;;;;7.00;5.00;;;;;;;19.39;97.58;101474.50;5259013;28;20043;-69
2022/07/31 07:03:24;;;;;;;7.00;5.25;;;;;;;19.35;96.14;101470.44;5263875;28;20098;-69
2022/07/31 07:05:56;;;;;;;9.13;5.20;;;;;;;19.46;96.16;101477.41;5257256;28;20063;-69
2022/07/31 07:08:27;;;;;;;8.40;4.70;;;;;;;19.61;96.66;101472.25;5263428;28;20036;-69
2022/07/31 07:10:58;;;;;;;10.05;5.57;;;;;;;19.55;95.17;101479.16;5275756;28;20020;-69
2022/07/31 07:13:30;;;;;;;8.77;4.88;;;;;;;19.66;95.66;101483.47;5264302;28;20048;-70
2022/07/31 07:16:01;;;;;;;9.65;5.78;;;;;;;19.65;94.62;101477.16;5262417;28;20024;-69
2022/07/31 07:18:32;;;;;;;9.82;5.82;;;;;;;19.76;95.08;101486.91;5264951;28;20028;-69
2022/07/31 07:21:04;;;;;;;8.75;6.55;;;;;;;19.86;94.20;101478.66;5260107;28;20505;-69
2022/07/31 07:23:35;;;;;;;9.25;6.25;;;;;;;20.07;93.78;101478.22;5262513;28;20128;-69
2022/07/31 07:26:07;;;;;;;9.23;6.50;;;;;;;20.09;92.79;101479.75;5257656;28;20091;-69
2022/07/31 07:28:38;;;;;;;10.77;6.65;;;;;;;20.33;94.20;101478.97;5261092;28;20437;-68
2022/07/31 07:31:10;;;;;;;11.43;7.78;;;;;;;20.45;91.45;101478.66;5266268;28;20021;-68
2022/07/31 07:33:41;;;;;;;11.68;8.18;;;;;;;20.65;91.93;101471.97;5263304;28;20052;-69
2022/07/31 07:36:12;;;;;;;10.02;8.15;;;;;;;20.75;90.44;101467.22;5261021;28;20021;-68
2022/07/31 07:38:44;;;;;;;11.52;8.07;;;;;;;20.87;90.75;101473.13;5263450;28;20021;-69
2022/07/31 07:41:15;;;;;;;10.25;7.32;;;;;;;20.92;89.85;101470.78;5258501;28;20037;-69
2022/07/31 07:43:48;;;;;;;11.60;7.82;;;;;;;21.00;88.61;101466.34;5268495;28;20029;-69
2022/07/31 07:46:21;;;;;;;11.57;8.85;;;;;;;21.07;88.97;101468.19;5271608;28;20103;-69
2022/07/31 07:48:52;;;;;;;12.77;8.88;;;;;;;21.15;88.70;101468.22;5270732;28;20104;-68
2022/07/31 07:51:24;;;;;;;10.70;9.02;;;;;;;21.16;87.66;101469.03;5273875;28;20467;-69
2022/07/31 07:53:55;;;;;;;11.43;9.65;;;;;;;21.09;87.19;101463.47;5263264;28;20033;-69
2022/07/31 07:56:26;;;;;;;11.90;8.30;;;;;;;21.21;88.14;101463.97;5260638;28;20105;-69
2022/07/31 07:58:57;;;;;;;13.93;8.93;;;;;;;21.25;nan;101470.72;5269777;28;20103;-70
2022/07/31 08:01:29;;;;;;;12.02;9.50;;;;;;;21.25;86.66;101464.47;5259798;28;20031;-69
2022/07/31 08:04:01;;;;;;;10.70;9.05;;;;;;;21.45;88.25;101470.38;5269365;28;20028;-69
2022/07/31 08:06:32;;;;;;;11.68;8.73;;;;;;;21.41;87.24;101464.41;5260502;28;20410;-69
2022/07/31 08:09:04;;;;;;;10.55;8.65;;;;;;;21.53;86.24;101468.50;5260762;28;20027;-68
2022/07/31 08:11:35;;;;;;;12.35;8.73;;;;;;;21.46;85.42;101463.94;5266710;28;20031;-68
2022/07/31 08:14:06;;;;;;;10.95;8.07;;;;;;;21.64;86.15;101467.25;5266951;28;20025;-68
2022/07/31 08:16:37;;;;;;;10.18;8.05;;;;;;;21.86;87.37;101471.09;5262776;28;20104;-68
2022/07/31 08:19:09;;;;;;;10.45;8.70;;;;;;;21.93;85.52;101469.34;5258812;28;20394;-68
2022/07/31 08:21:40;;;;;;;10.77;9.05;;;;;;;21.79;84.34;101463.81;5267092;28;20059;-68
2022/07/31 08:24:12;;;;;;;10.95;8.40;;;;;;;22.03;84.10;101463.69;5258119;28;20479;-68
2022/07/31 08:29:33;;;;;;;10.95;8.38;;;;;;;22.10;84.00;101459.22;5262225;28;20041;-68
2022/07/31 08:32:05;;;;;;;8.95;7.57;;;;;;;22.13;84.38;101460.78;5261821;28;20020;-68
2022/07/31 08:34:36;;;;;;;10.90;8.20;;;;;;;22.20;83.97;101460.88;5263297;28;20036;-69
2022/07/31 08:37:08;;;;;;;10.25;7.28;;;;;;;22.32;82.80;101456.75;5272616;28;20029;-68
2022/07/31 08:39:39;;;;;;;10.88;7.82;;;;;;;22.25;83.32;101466.69;5256966;28;20075;-68
2022/07/31 08:42:11;;;;;;;10.25;7.60;;;;;;;22.22;83.30;101469.72;5257603;28;20619;-68
2022/07/31 08:44:43;;;;;;;9.32;7.85;;;;;;;22.10;83.81;101466.56;5258502;28;20078;-68
2022/07/31 08:47:16;;;;;;;9.55;6.90;;;;;;;22.20;84.06;101458.16;5251697;28;20032;-68
2022/07/31 08:49:48;;;;;;;9.85;7.70;;;;;;;22.03;84.45;101462.84;5261789;28;20085;-68
2022/07/31 08:52:24;;;;;;;9.00;7.63;;;;;;;21.99;85.02;101466.94;5262667;28;20035;-69
2022/07/31 08:54:56;;;;;;;9.32;7.60;;;;;;;21.82;83.80;101464.31;5253108;28;20040;-69
2022/07/31 08:57:27;;;;;;;7.85;7.00;;;;;;;21.95;84.36;101471.88;5254144;28;20126;-69
2022/07/31 08:59:59;;;;;;;9.25;6.82;;;;;;;21.89;85.80;101469.88;5262865;28;20032;-69
2022/07/31 09:02:31;;;;;;;8.65;6.80;;;;;;;22.03;85.26;101473.72;5260918;28;20020;-69
2022/07/31 09:05:03;;;;;;;9.70;7.13;;;;;;;22.08;85.18;101476.75;5250005;28;20033;-68
2022/07/31 09:07:35;;;;;;;8.70;6.40;;;;;;;22.24;83.52;101464.94;5256808;28;20748;-68
2022/07/31 09:10:27;;;;;;;8.82;7.82;;;;;;;22.30;86.09;101472.41;5259637;28;20028;-68
2022/07/31 09:12:59;;;;;;;8.02;6.75;;;;;;;22.42;82.24;101448.38;5253988;28;20052;-68
2022/07/31 09:15:30;;;;;;;9.80;6.68;;;;;;;22.48;83.79;101453.09;5255394;28;20550;-68
2022/07/31 09:18:02;;;;;;;8.32;6.60;;;;;;;22.52;83.40;101446.25;5255325;28;20025;-69
2022/07/31 09:20:33;;;;;;;12.13;7.32;;;;;;;22.60;83.50;101442.63;5253253;28;20039;-67
2022/07/31 09:23:06;;;;;;;8.50;6.53;;;;;;;22.67;84.07;101452.59;5258989;28;20039;-68
2022/07/31 09:25:37;;;;;;;9.32;7.20;;;;;;;22.71;81.94;101443.03;5264538;28;20032;-68
2022/07/31 09:28:09;;;;;;;8.43;6.57;;;;;;;22.88;82.53;101453.81;5267974;28;20434;-68
2022/07/31 09:30:41;;;;;;;10.82;6.80;;;;;;;23.01;81.21;101450.44;5275537;28;20454;-68
2022/07/31 09:33:17;;;;;;;8.77;6.28;;;;;;;22.97;79.21;101449.94;5266623;28;20066;-68
2022/07/31 09:35:50;;;;;;;9.30;6.53;;;;;;;23.03;80.39;101451.13;5277643;28;20035;-67
2022/07/31 09:38:29;;;;;;;7.05;5.68;;;;;;;23.34;80.95;101456.44;5259601;28;20106;-68
2022/07/31 09:41:17;;;;;;;9.30;5.97;;;;;;;23.62;80.29;101455.78;5257381;28;20475;-68
2022/07/31 09:44:01;;;;;;;8.20;5.65;;;;;;;23.81;78.44;101448.94;5251601;28;20495;-68
2022/07/31 09:46:39;;;;;;;;;;;;;;;24.25;77.73;101447.97;5254736;28;20075;-68
2022/07/31 09:49:11;;;;;;;8.07;5.65;;;;;;;24.04;74.96;101440.59;5260683;28;19916;-68
2022/07/31 09:51:45;;;;;;;9.75;6.57;;;;;;;24.15;74.74;101442.00;5260851;28;20036;-68
2022/07/31 09:54:21;;;;;;;9.07;5.22;;;;;;;24.35;76.69;101445.75;5264559;28;20054;-68
2022/07/31 09:56:53;;;;;;;7.47;5.13;;;;;;;24.40;74.45;101439.75;5259669;28;20029;-68
2022/07/31 09:59:25;;;;;;;7.43;5.10;;;;;;;24.60;74.03;101439.97;5266890;28;22111;-68
2022/07/31 10:01:56;;;;;;;6.43;4.72;;;;;;;24.83;72.63;101440.59;5259750;28;20105;-68
2022/07/31 10:04:28;;;;;;;6.28;4.10;;;;;;;24.91;74.30;101436.88;5278202;28;20387;-68
2022/07/31 10:06:59;;;;;;;5.47;4.88;;;;;;;24.87;73.03;101432.00;5273827;28;20138;-67
2022/07/31 10:09:31;;;;;;;6.35;4.18;;;;;;;24.87;75.44;101442.94;5272890;28;20037;-68
2022/07/31 10:12:03;;;;;;;6.30;4.05;;;;;;;24.84;72.31;101447.75;5269647;28;20020;-68
2022/07/31 10:14:39;;;;;;;7.03;4.35;;;;;;;24.89;72.55;101444.44;5270330;28;20053;-68
2022/07/31 10:17:16;;;;;;;5.95;3.90;;;;;;;24.94;73.54;101444.66;5274289;28;20048;-68
2022/07/31 10:19:49;;;;;;;5.78;3.50;;;;;;;24.92;74.50;101444.03;5269143;28;20507;-68
2022/07/31 10:22:21;;;;;;;8.15;4.32;;;;;;;24.91;71.64;101438.75;5269912;28;20048;-68
2022/07/31 10:24:54;;;;;;;5.70;3.90;;;;;;;24.85;72.23;101438.53;5261220;28;20036;-68
2022/07/31 10:27:27;;;;;;;6.63;3.72;;;;;;;24.92;70.19;101432.25;5266493;28;20029;-68
2022/07/31 10:29:59;;;;;;;6.55;3.85;;;;;;;24.79;70.83;101436.56;5262143;28;20032;-68
2022/07/31 10:32:30;;;;;;;6.68;3.40;;;;;;;24.93;72.43;101433.94;5279986;28;20082;-68
2022/07/31 10:35:06;;;;;;;5.53;3.63;;;;;;;25.01;71.68;101422.88;5293480;28;20390;-68
2022/07/31 10:37:57;;;;;;;6.63;3.38;;;;;;;25.15;71.42;101424.66;5265702;28;20029;-68
2022/07/31 10:41:15;;;;;;;6.03;3.78;;;;;;;25.59;71.75;101433.56;5275519;28;20032;-68
2022/07/31 10:43:51;;;;;;;4.70;3.10;;;;;;;25.54;69.74;101422.38;5247939;28;20103;-68
2022/07/31 10:46:31;;;;;;;6.40;2.95;;;;;;;25.60;69.21;101418.84;5250989;28;20044;-69
2022/07/31 10:49:02;;;;;;;5.40;3.20;;;;;;;25.67;70.12;101418.88;5263498;28;20052;-68
2022/07/31 10:51:48;;;;;;;5.97;3.50;;;;;;;25.62;70.44;101428.53;5276154;28;20699;-68
2022/07/31 10:54:19;;;;;;;4.20;2.75;;;;;;;25.28;68.96;101418.47;5262309;28;20029;-69
2022/07/31 10:56:51;;;;;;;5.30;2.90;;;;;;;25.05;69.80;101405.91;5263123;28;20036;-68
2022/07/31 10:59:28;;;;;;;6.43;3.47;;;;;;;25.00;70.66;101415.72;5269407;28;20083;-69
2022/07/31 11:02:00;;;;;;;4.70;3.50;;;;;;;24.81;69.52;101415.41;5277531;28;20523;-68
2022/07/31 11:04:31;;;;;;;5.93;3.40;;;;;;;25.11;71.30;101404.25;5263082;28;20115;-69
2022/07/31 11:07:13;;;;;;;6.07;3.40;;;;;;;25.01;69.25;101404.63;5262903;28;20040;-69
2022/07/31 11:09:45;;;;;;;5.15;3.00;;;;;;;25.26;70.12;101409.63;5259514;28;20122;-69
2022/07/31 11:12:17;;;;;;;5.57;3.15;;;;;;;25.30;69.68;101408.19;5256148;28;20033;-69
2022/07/31 11:14:49;;;;;;;3.63;2.80;;;;;;;25.60;69.25;101405.16;5257443;28;20055;-69
2022/07/31 11:17:35;;;;;;;5.70;3.05;;;;;;;25.57;68.67;101402.88;5262084;28;20187;-69
2022/07/31 11:20:17;;;;;;;4.38;2.80;;;;;;;25.65;70.17;101405.41;5258501;28;20036;-69
2022/07/31 11:22:53;;;;;;;4.07;2.85;;;;;;;25.60;68.18;101399.72;5262638;28;20483;-69
2022/07/31 11:25:28;;;;;;;4.90;3.50;;;;;;;25.44;68.04;101400.91;5262450;28;20554;-69
2022/07/31 11:28:28;;;;;;;4.60;3.20;;;;;;;25.71;67.99;101395.56;5263926;28;20036;-69
2022/07/31 11:31:06;;;;;;;4.45;2.95;;;;;;;25.76;68.54;101390.34;5261427;28;20046;-68
2022/07/31 11:33:42;;;;;;;5.00;3.13;;;;;;;25.66;66.62;101395.31;5259155;28;20028;-68
2022/07/31 11:36:25;;;;;;;6.80;3.97;;;;;;;25.77;65.70;101392.88;5264981;28;20032;-68
2022/07/31 11:38:57;;;;;;;4.22;2.38;;;;;;;25.97;66.88;101389.38;5259601;28;20056;-69
2022/07/31 11:41:29;;;;;;;3.88;2.50;;;;;;;26.02;66.81;101384.97;5260698;28;20976;-68
2022/07/31 11:44:02;;;;;;;5.82;2.75;;;;;;;25.92;65.67;101384.50;5274366;28;20492;-68
2022/07/31 11:46:36;;;;;;;4.45;2.78;;;;;;;25.96;64.86;101380.31;5267778;28;20086;-69
2022/07/31 11:49:18;;;;;;;5.85;2.60;;;;;;;26.13;66.65;101374.47;5267349;28;20032;-69
2022/07/31 11:51:58;;;;;;;4.57;2.85;;;;;;;26.07;67.95;101369.84;5267940;28;20048;-69